Fume Blanc Commodore — WDD5259 — position and weather

sailwx.info

Track history (hours):
 
Tides and Currents Weather Stations Pressure Air Temp Water Temp Dewpoint Dewpoint Depression Visibility Wind Speed Wind Dir Waves Ship Positions

Fume Blanc Commodore

Owner: Commodore Dining Cruises, Alameda, CA. More information available from US FCC via Universal Licensing System and Coast Guard Vessel Documentation Center.

Last reported at 2017-Dec-17 07:25 UTC. Time now 2017-Dec-18 06:58 UTC.
Position N 37°48' W 122°17'.

Length 26 m; draft 1.5 m.

Type: Passenger vessel. MMSI: 367155780.

Date/timePositionNaut miles runAvg speedWind from/ knotsBaromVisibWave heightAir tempDewpointWater temp
2017-Dec-17 07:25N 37°48' W 122°17'0 0.2
2017-Dec-17 07:00N 37°48' W 122°17'2 3.1
2017-Dec-17 06:30N 37°47' W 122°15'3 5.7
2017-Dec-17 06:00N 37°48' W 122°18'3 6.8
2017-Dec-17 05:30N 37°48' W 122°23'2 3.5
2017-Dec-17 05:00N 37°49' W 122°25'2 4.3
2017-Dec-17 04:30N 37°48' W 122°22'2 3.6
2017-Dec-17 04:00N 37°48' W 122°20'3 5.8
2017-Dec-17 03:30N 37°47' W 122°17'0 0.0
2017-Dec-17 03:00N 37°47' W 122°17'0 0.0
2017-Dec-16 21:54N 37°47' W 122°17'0 0.0
2017-Dec-16 21:30N 37°47' W 122°17'0 0.0
2017-Dec-16 21:01N 37°47' W 122°17'0 0.0
2017-Dec-16 20:30N 37°47' W 122°17'0 0.0
2017-Dec-16 20:00N 37°47' W 122°17'0 0.0
2017-Dec-16 08:15N 37°48' W 122°17'0 2.0
2017-Dec-16 08:00N 37°48' W 122°17'3 6.8
2017-Dec-16 07:30N 37°47' W 122°22'1 2.9
2017-Dec-16 07:00N 37°47' W 122°23'2 3.3
2017-Dec-16 06:30N 37°48' W 122°22'3 5.1
2017-Dec-16 06:00N 37°50' W 122°24'2 4.9
2017-Dec-16 05:30N 37°52' W 122°25'3 5.6
2017-Dec-16 05:00N 37°52' W 122°29'2 3.8
2017-Dec-16 04:30N 37°50' W 122°28'2 4.4
2017-Dec-16 04:00N 37°49' W 122°26'3 5.2
2017-Dec-16 03:30N 37°47' W 122°23'1 1.0
2017-Dec-16 03:00N 37°47' W 122°23'1 2.0
2017-Dec-16 02:30N 37°47' W 122°22'3 6.8
2017-Dec-16 02:00N 37°48' W 122°18'1 1.8
2017-Dec-16 01:30N 37°47' W 122°17'0 0.0
2017-Dec-15 21:56N 37°47' W 122°17'0 0.0
2017-Dec-15 21:31N 37°47' W 122°17'0 0.0
2017-Dec-13 23:00N 37°48' W 122°17'1 1.4
2017-Dec-13 22:31N 37°48' W 122°18'3 6.3
2017-Dec-13 22:00N 37°49' W 122°21'3 5.9
2017-Dec-13 21:31N 37°51' W 122°24'2 3.1
2017-Dec-13 21:00N 37°49' W 122°25'4 8.0
2017-Dec-13 20:30N 37°48' W 122°21'3 6.4
2017-Dec-13 20:01N 37°48' W 122°17'0 0.1
2017-Dec-13 19:30N 37°47' W 122°17'0 0.0
2017-Dec-13 18:08N 37°47' W 122°17'0 0.0
2017-Dec-13 18:00N 37°47' W 122°17'0 0.0
2017-Dec-13 17:30N 37°47' W 122°17'  
2017-Dec-10 06:32N 37°48' W 122°17'0 0.0
2017-Dec-10 06:30N 37°48' W 122°17'1 2.9
2017-Dec-10 06:00N 37°48' W 122°18'3 5.3
2017-Dec-10 05:30N 37°48' W 122°22'1 2.9
2017-Dec-10 05:01N 37°47' W 122°23'1 2.8
2017-Dec-10 04:31N 37°48' W 122°23'2 3.3
2017-Dec-10 04:00N 37°49' W 122°25'2 4.7
2017-Dec-10 03:30N 37°49' W 122°28'2 4.5
2017-Dec-10 03:00N 37°49' W 122°25'2 5.0
2017-Dec-10 02:31N 37°47' W 122°23'0 0.0
2017-Dec-10 02:00N 37°47' W 122°23'0 0.0
2017-Dec-10 01:30N 37°47' W 122°23'3 6.6
2017-Dec-10 01:00N 37°48' W 122°19'2 4.0
2017-Dec-10 00:30N 37°47' W 122°17'0 0.0
2017-Dec-09 23:32N 37°47' W 122°17'0 0.0
2017-Dec-09 23:30N 37°47' W 122°17'  
Track history (hours):
 
Tides and Currents Weather Stations Pressure Air Temp Water Temp Dewpoint Dewpoint Depression Visibility Wind Speed Wind Dir Waves Ship Positions

Fume Blanc Commodore

Owner: Commodore Dining Cruises, Alameda, CA. More information available from US FCC via Universal Licensing System and Coast Guard Vessel Documentation Center.

Last reported at 2017-Dec-17 07:25 UTC. Time now 2017-Dec-18 06:58 UTC.
Position N 37°48' W 122°17'.

Length 26 m; draft 1.5 m.

Type: Passenger vessel. MMSI: 367155780.

Date/timePositionNaut miles runAvg speedWind from/ knotsBaromVisibWave heightAir tempDewpointWater temp
2017-Dec-17 07:25N 37°48' W 122°17'0 0.2
2017-Dec-17 07:00N 37°48' W 122°17'2 3.1
2017-Dec-17 06:30N 37°47' W 122°15'3 5.7
2017-Dec-17 06:00N 37°48' W 122°18'3 6.8
2017-Dec-17 05:30N 37°48' W 122°23'2 3.5
2017-Dec-17 05:00N 37°49' W 122°25'2 4.3
2017-Dec-17 04:30N 37°48' W 122°22'2 3.6
2017-Dec-17 04:00N 37°48' W 122°20'3 5.8
2017-Dec-17 03:30N 37°47' W 122°17'0 0.0
2017-Dec-17 03:00N 37°47' W 122°17'0 0.0
2017-Dec-16 21:54N 37°47' W 122°17'0 0.0
2017-Dec-16 21:30N 37°47' W 122°17'0 0.0
2017-Dec-16 21:01N 37°47' W 122°17'0 0.0
2017-Dec-16 20:30N 37°47' W 122°17'0 0.0
2017-Dec-16 20:00N 37°47' W 122°17'0 0.0
2017-Dec-16 08:15N 37°48' W 122°17'0 2.0
2017-Dec-16 08:00N 37°48' W 122°17'3 6.8
2017-Dec-16 07:30N 37°47' W 122°22'1 2.9
2017-Dec-16 07:00N 37°47' W 122°23'2 3.3
2017-Dec-16 06:30N 37°48' W 122°22'3 5.1
2017-Dec-16 06:00N 37°50' W 122°24'2 4.9
2017-Dec-16 05:30N 37°52' W 122°25'3 5.6
2017-Dec-16 05:00N 37°52' W 122°29'2 3.8
2017-Dec-16 04:30N 37°50' W 122°28'2 4.4
2017-Dec-16 04:00N 37°49' W 122°26'3 5.2
2017-Dec-16 03:30N 37°47' W 122°23'1 1.0
2017-Dec-16 03:00N 37°47' W 122°23'1 2.0
2017-Dec-16 02:30N 37°47' W 122°22'3 6.8
2017-Dec-16 02:00N 37°48' W 122°18'1 1.8
2017-Dec-16 01:30N 37°47' W 122°17'0 0.0
2017-Dec-15 21:56N 37°47' W 122°17'0 0.0
2017-Dec-15 21:31N 37°47' W 122°17'0 0.0
2017-Dec-13 23:00N 37°48' W 122°17'1 1.4
2017-Dec-13 22:31N 37°48' W 122°18'3 6.3
2017-Dec-13 22:00N 37°49' W 122°21'3 5.9
2017-Dec-13 21:31N 37°51' W 122°24'2 3.1
2017-Dec-13 21:00N 37°49' W 122°25'4 8.0
2017-Dec-13 20:30N 37°48' W 122°21'3 6.4
2017-Dec-13 20:01N 37°48' W 122°17'0 0.1
2017-Dec-13 19:30N 37°47' W 122°17'0 0.0
2017-Dec-13 18:08N 37°47' W 122°17'0 0.0
2017-Dec-13 18:00N 37°47' W 122°17'0 0.0
2017-Dec-13 17:30N 37°47' W 122°17'  
2017-Dec-10 06:32N 37°48' W 122°17'0 0.0
2017-Dec-10 06:30N 37°48' W 122°17'1 2.9
2017-Dec-10 06:00N 37°48' W 122°18'3 5.3
2017-Dec-10 05:30N 37°48' W 122°22'1 2.9
2017-Dec-10 05:01N 37°47' W 122°23'1 2.8
2017-Dec-10 04:31N 37°48' W 122°23'2 3.3
2017-Dec-10 04:00N 37°49' W 122°25'2 4.7
2017-Dec-10 03:30N 37°49' W 122°28'2 4.5
2017-Dec-10 03:00N 37°49' W 122°25'2 5.0
2017-Dec-10 02:31N 37°47' W 122°23'0 0.0
2017-Dec-10 02:00N 37°47' W 122°23'0 0.0
2017-Dec-10 01:30N 37°47' W 122°23'3 6.6
2017-Dec-10 01:00N 37°48' W 122°19'2 4.0
2017-Dec-10 00:30N 37°47' W 122°17'0 0.0
2017-Dec-09 23:32N 37°47' W 122°17'0 0.0
2017-Dec-09 23:30N 37°47' W 122°17'  

Dump ship's entire track history